sensor_id;sensor_type;location;lat;lon;timestamp;pressure;altitude;pressure_sealevel;temperature;humidity
17855;BME280;9053;53.358;6.382;2023-12-20T00:00:51;101136.22;;;8.10;100.00
17855;BME280;9053;53.358;6.382;2023-12-20T00:03:21;101127.38;;;8.08;100.00
17855;BME280;9053;53.358;6.382;2023-12-20T00:05:54;101128.13;;;8.06;100.00
17855;BME280;9053;53.358;6.382;2023-12-20T00:08:24;101126.34;;;8.05;100.00
17855;BME280;9053;53.358;6.382;2023-12-20T00:10:54;101117.41;;;8.01;100.00
17855;BME280;9053;53.358;6.382;2023-12-20T00:13:24;101112.94;;;7.98;100.00
17855;BME280;9053;53.358;6.382;2023-12-20T00:15:54;101125.81;;;7.94;100.00
17855;BME280;9053;53.358;6.382;2023-12-20T00:18:24;101117.75;;;7.89;100.00
17855;BME280;9053;53.358;6.382;2023-12-20T00:20:56;101130.00;;;7.90;100.00
17855;BME280;9053;53.358;6.382;2023-12-20T00:23:26;101129.09;;;7.90;100.00
17855;BME280;9053;53.358;6.382;2023-12-20T00:25:56;101129.94;;;7.89;100.00
17855;BME280;9053;53.358;6.382;2023-12-20T00:28:26;101126.41;;;7.88;100.00
17855;BME280;9053;53.358;6.382;2023-12-20T00:30:56;101125.50;;;7.88;100.00
17855;BME280;9053;53.358;6.382;2023-12-20T00:33:26;101131.59;;;7.87;100.00
17855;BME280;9053;53.358;6.382;2023-12-20T00:35:59;101130.75;;;7.88;100.00
17855;BME280;9053;53.358;6.382;2023-12-20T00:38:29;101117.78;;;7.91;100.00
17855;BME280;9053;53.358;6.382;2023-12-20T00:40:59;101110.88;;;7.91;100.00
17855;BME280;9053;53.358;6.382;2023-12-20T00:43:29;101099.63;;;7.94;100.00
17855;BME280;9053;53.358;6.382;2023-12-20T00:45:59;101110.16;;;7.95;100.00
17855;BME280;9053;53.358;6.382;2023-12-20T00:48:29;101105.75;;;7.94;100.00
17855;BME280;9053;53.358;6.382;2023-12-20T00:51:02;101107.56;;;7.95;100.00
17855;BME280;9053;53.358;6.382;2023-12-20T00:53:33;101104.94;;;7.95;100.00
17855;BME280;9053;53.358;6.382;2023-12-20T00:56:03;101100.53;;;7.94;100.00
17855;BME280;9053;53.358;6.382;2023-12-20T00:58:33;101095.34;;;7.96;100.00
17855;BME280;9053;53.358;6.382;2023-12-20T01:01:03;101090.09;;;7.96;100.00
17855;BME280;9053;53.358;6.382;2023-12-20T01:03:33;101078.75;;;7.95;100.00
17855;BME280;9053;53.358;6.382;2023-12-20T01:06:06;101077.94;;;7.96;100.00
17855;BME280;9053;53.358;6.382;2023-12-20T01:08:37;101082.44;;;7.99;100.00
17855;BME280;9053;53.358;6.382;2023-12-20T01:11:07;101090.19;;;7.97;100.00
17855;BME280;9053;53.358;6.382;2023-12-20T01:13:37;101094.53;;;7.97;100.00
17855;BME280;9053;53.358;6.382;2023-12-20T01:16:10;101096.31;;;7.98;100.00
17855;BME280;9053;53.358;6.382;2023-12-20T01:18:40;101092.91;;;7.99;100.00
17855;BME280;9053;53.358;6.382;2023-12-20T01:21:12;101086.53;;;7.94;100.00
17855;BME280;9053;53.358;6.382;2023-12-20T01:23:42;101082.72;;;7.87;100.00
17855;BME280;9053;53.358;6.382;2023-12-20T01:26:12;101076.41;;;7.84;100.00
17855;BME280;9053;53.358;6.382;2023-12-20T01:28:42;101082.41;;;7.81;100.00
17855;BME280;9053;53.358;6.382;2023-12-20T01:31:12;101080.72;;;7.82;100.00
17855;BME280;9053;53.358;6.382;2023-12-20T01:33:44;101077.34;;;7.84;100.00
17855;BME280;9053;53.358;6.382;2023-12-20T01:36:19;101070.28;;;7.83;100.00
17855;BME280;9053;53.358;6.382;2023-12-20T01:38:53;101071.19;;;7.84;100.00
17855;BME280;9053;53.358;6.382;2023-12-20T01:41:25;101077.41;;;7.86;100.00
17855;BME280;9053;53.358;6.382;2023-12-20T01:43:55;101066.25;;;7.90;100.00
17855;BME280;9053;53.358;6.382;2023-12-20T01:46:25;101063.72;;;7.91;100.00
17855;BME280;9053;53.358;6.382;2023-12-20T01:48:55;101062.97;;;7.94;100.00
17855;BME280;9053;53.358;6.382;2023-12-20T01:51:28;101070.00;;;7.95;100.00
17855;BME280;9053;53.358;6.382;2023-12-20T01:53:59;101064.75;;;7.95;100.00
17855;BME280;9053;53.358;6.382;2023-12-20T01:56:30;101069.09;;;7.94;100.00
17855;BME280;9053;53.358;6.382;2023-12-20T01:59:00;101061.31;;;7.96;100.00
17855;BME280;9053;53.358;6.382;2023-12-20T02:01:32;101056.06;;;7.96;100.00
17855;BME280;9053;53.358;6.382;2023-12-20T02:04:02;101054.41;;;7.98;100.00
17855;BME280;9053;53.358;6.382;2023-12-20T02:06:33;101049.94;;;7.95;100.00
17855;BME280;9053;53.358;6.382;2023-12-20T02:09:03;101040.34;;;7.96;100.00
17855;BME280;9053;53.358;6.382;2023-12-20T02:11:36;101040.34;;;7.96;100.00
17855;BME280;9053;53.358;6.382;2023-12-20T02:14:05;101032.56;;;7.97;100.00
17855;BME280;9053;53.358;6.382;2023-12-20T02:16:35;101040.53;;;7.99;100.00
17855;BME280;9053;53.358;6.382;2023-12-20T02:19:11;101035.34;;;8.00;100.00
17855;BME280;9053;53.358;6.382;2023-12-20T02:21:45;101039.91;;;8.05;100.00
17855;BME280;9053;53.358;6.382;2023-12-20T02:24:15;101028.59;;;8.06;100.00
17855;BME280;9053;53.358;6.382;2023-12-20T02:26:45;101033.97;;;8.09;100.00
17855;BME280;9053;53.358;6.382;2023-12-20T02:29:15;101032.41;;;8.12;100.00
17855;BME280;9053;53.358;6.382;2023-12-20T02:31:46;101030.81;;;8.16;100.00
17855;BME280;9053;53.358;6.382;2023-12-20T02:34:16;101033.59;;;8.19;100.00
17855;BME280;9053;53.358;6.382;2023-12-20T02:36:48;101021.44;;;8.21;100.00
17855;BME280;9053;53.358;6.382;2023-12-20T02:39:27;101026.84;;;8.24;100.00
17855;BME280;9053;53.358;6.382;2023-12-20T02:41:57;101012.00;;;8.24;100.00
17855;BME280;9053;53.358;6.382;2023-12-20T02:44:28;101022.63;;;8.28;100.00
17855;BME280;9053;53.358;6.382;2023-12-20T02:46:58;101023.53;;;8.28;100.00
17855;BME280;9053;53.358;6.382;2023-12-20T02:49:28;101013.03;;;8.28;100.00
17855;BME280;9053;53.358;6.382;2023-12-20T02:52:01;101009.44;;;8.26;100.00
17855;BME280;9053;53.358;6.382;2023-12-20T02:54:32;101003.31;;;8.26;100.00
17855;BME280;9053;53.358;6.382;2023-12-20T02:57:02;101007.66;;;8.25;100.00
17855;BME280;9053;53.358;6.382;2023-12-20T02:59:32;101007.75;;;8.27;100.00
17855;BME280;9053;53.358;6.382;2023-12-20T03:02:02;101008.69;;;8.29;100.00
17855;BME280;9053;53.358;6.382;2023-12-20T03:04:32;100995.53;;;8.27;100.00
17855;BME280;9053;53.358;6.382;2023-12-20T03:07:05;100993.72;;;8.26;100.00
17855;BME280;9053;53.358;6.382;2023-12-20T03:09:35;100993.81;;;8.28;100.00
17855;BME280;9053;53.358;6.382;2023-12-20T03:12:24;101000.81;;;8.29;100.00
17855;BME280;9053;53.358;6.382;2023-12-20T03:14:54;100985.06;;;8.27;100.00
17855;BME280;9053;53.358;6.382;2023-12-20T03:17:24;100987.59;;;8.26;100.00
17855;BME280;9053;53.358;6.382;2023-12-20T03:19:54;100977.81;;;8.21;100.00
17855;BME280;9053;53.358;6.382;2023-12-20T03:22:27;100977.53;;;8.15;100.00
17855;BME280;9053;53.358;6.382;2023-12-20T03:24:57;100963.25;;;8.09;100.00
17855;BME280;9053;53.358;6.382;2023-12-20T03:27:27;100966.56;;;8.05;100.00
17855;BME280;9053;53.358;6.382;2023-12-20T03:29:57;100963.94;;;8.05;100.00
17855;BME280;9053;53.358;6.382;2023-12-20T03:32:27;100971.81;;;8.05;100.00
17855;BME280;9053;53.358;6.382;2023-12-20T03:34:57;100961.31;;;8.05;100.00
17855;BME280;9053;53.358;6.382;2023-12-20T03:37:30;100963.84;;;8.03;100.00
17855;BME280;9053;53.358;6.382;2023-12-20T03:40:00;100965.69;;;8.04;100.00
17855;BME280;9053;53.358;6.382;2023-12-20T03:42:31;100967.44;;;8.05;100.00
17855;BME280;9053;53.358;6.382;2023-12-20T03:45:01;100962.22;;;8.05;100.00
17855;BME280;9053;53.358;6.382;2023-12-20T03:47:31;100967.59;;;8.08;100.00
17855;BME280;9053;53.358;6.382;2023-12-20T03:50:01;100969.41;;;8.09;100.00
17855;BME280;9053;53.358;6.382;2023-12-20T03:52:33;100965.09;;;8.11;100.00
17855;BME280;9053;53.358;6.382;2023-12-20T03:55:04;100964.44;;;8.15;100.00
17855;BME280;9053;53.358;6.382;2023-12-20T03:57:34;100955.81;;;8.18;100.00
17855;BME280;9053;53.358;6.382;2023-12-20T04:00:07;100952.38;;;8.19;100.00
17855;BME280;9053;53.358;6.382;2023-12-20T04:02:39;100956.91;;;8.23;100.00
17855;BME280;9053;53.358;6.382;2023-12-20T04:05:10;100950.03;;;8.25;100.00
17855;BME280;9053;53.358;6.382;2023-12-20T04:07:43;100946.72;;;8.29;100.00
17855;BME280;9053;53.358;6.382;2023-12-20T04:10:13;100948.59;;;8.32;100.00
17855;BME280;9053;53.358;6.382;2023-12-20T04:12:43;100943.38;;;8.33;100.00
17855;BME280;9053;53.358;6.382;2023-12-20T04:15:13;100930.38;;;8.35;100.00
17855;BME280;9053;53.358;6.382;2023-12-20T04:17:45;100939.19;;;8.37;100.00
17855;BME280;9053;53.358;6.382;2023-12-20T04:20:15;100936.63;;;8.38;100.00
17855;BME280;9053;53.358;6.382;2023-12-20T04:22:48;100934.84;;;8.37;100.00
17855;BME280;9053;53.358;6.382;2023-12-20T04:25:18;100935.09;;;8.42;100.00
17855;BME280;9053;53.358;6.382;2023-12-20T04:27:49;100934.16;;;8.41;100.00
17855;BME280;9053;53.358;6.382;2023-12-20T04:30:19;100936.03;;;8.44;100.00
17855;BME280;9053;53.358;6.382;2023-12-20T04:32:49;100929.22;;;8.48;100.00
17855;BME280;9053;53.358;6.382;2023-12-20T04:35:24;100932.84;;;8.51;100.00
17855;BME280;9053;53.358;6.382;2023-12-20T04:37:57;100918.78;;;8.49;100.00
17855;BME280;9053;53.358;6.382;2023-12-20T04:40:27;100925.81;;;8.50;100.00
17855;BME280;9053;53.358;6.382;2023-12-20T04:42:57;100931.28;;;8.55;100.00
17855;BME280;9053;53.358;6.382;2023-12-20T04:45:27;100930.44;;;8.56;100.00
17855;BME280;9053;53.358;6.382;2023-12-20T04:47:57;100931.31;;;8.56;100.00
17855;BME280;9053;53.358;6.382;2023-12-20T04:50:28;100926.16;;;8.58;100.00
17855;BME280;9053;53.358;6.382;2023-12-20T04:53:01;100930.56;;;8.59;100.00
17855;BME280;9053;53.358;6.382;2023-12-20T04:55:31;100930.72;;;8.62;100.00
17855;BME280;9053;53.358;6.382;2023-12-20T04:58:01;100928.97;;;8.62;100.00
17855;BME280;9053;53.358;6.382;2023-12-20T05:00:31;100929.94;;;8.64;100.00
17855;BME280;9053;53.358;6.382;2023-12-20T05:03:01;100923.94;;;8.67;100.00
17855;BME280;9053;53.358;6.382;2023-12-20T05:05:31;100936.28;;;8.70;100.00
17855;BME280;9053;53.358;6.382;2023-12-20T05:08:04;100923.22;;;8.71;100.00
17855;BME280;9053;53.358;6.382;2023-12-20T05:10:34;100925.06;;;8.74;100.00
17855;BME280;9053;53.358;6.382;2023-12-20T05:13:04;100925.06;;;8.74;100.00
17855;BME280;9053;53.358;6.382;2023-12-20T05:15:35;100928.66;;;8.76;100.00
17855;BME280;9053;53.358;6.382;2023-12-20T05:18:05;100919.06;;;8.76;100.00
17855;BME280;9053;53.358;6.382;2023-12-20T05:20:35;100926.94;;;8.76;100.00
17855;BME280;9053;53.358;6.382;2023-12-20T05:23:07;100930.31;;;8.74;100.00
17855;BME280;9053;53.358;6.382;2023-12-20T05:25:38;100918.19;;;8.76;100.00
17855;BME280;9053;53.358;6.382;2023-12-20T05:28:08;100913.91;;;8.78;100.00
17855;BME280;9053;53.358;6.382;2023-12-20T05:30:38;100913.94;;;8.79;100.00
17855;BME280;9053;53.358;6.382;2023-12-20T05:33:13;100913.19;;;8.82;100.00
17855;BME280;9053;53.358;6.382;2023-12-20T05:36:04;100888.69;;;8.81;100.00
17855;BME280;9053;53.358;6.382;2023-12-20T05:38:40;100886.94;;;8.82;100.00
17855;BME280;9053;53.358;6.382;2023-12-20T05:41:10;100900.91;;;8.81;100.00
17855;BME280;9053;53.358;6.382;2023-12-20T05:43:40;100912.38;;;8.83;100.00
17855;BME280;9053;53.358;6.382;2023-12-20T05:46:10;100914.22;;;8.85;100.00
17855;BME280;9053;53.358;6.382;2023-12-20T05:48:41;100916.16;;;8.90;100.00
17855;BME280;9053;53.358;6.382;2023-12-20T05:51:11;100886.38;;;8.89;100.00
17855;BME280;9053;53.358;6.382;2023-12-20T05:53:44;100902.19;;;8.91;100.00
17855;BME280;9053;53.358;6.382;2023-12-20T05:56:17;100889.16;;;8.92;100.00
17855;BME280;9053;53.358;6.382;2023-12-20T05:58:50;100872.50;;;8.92;100.00
17855;BME280;9053;53.358;6.382;2023-12-20T06:01:21;100877.75;;;8.92;100.00
17855;BME280;9053;53.358;6.382;2023-12-20T06:03:51;100877.81;;;8.93;100.00
17855;BME280;9053;53.358;6.382;2023-12-20T06:06:21;100876.84;;;8.91;100.00
17855;BME280;9053;53.358;6.382;2023-12-20T06:08:53;100877.75;;;8.92;100.00
17855;BME280;9053;53.358;6.382;2023-12-20T06:11:24;100869.84;;;8.90;100.00
17855;BME280;9053;53.358;6.382;2023-12-20T06:13:54;100868.09;;;8.91;100.00
17855;BME280;9053;53.358;6.382;2023-12-20T06:16:24;100875.06;;;8.90;100.00
17855;BME280;9053;53.358;6.382;2023-12-20T06:18:54;100862.94;;;8.92;100.00
17855;BME280;9053;53.358;6.382;2023-12-20T06:21:25;100863.03;;;8.95;100.00
17855;BME280;9053;53.358;6.382;2023-12-20T06:23:58;100864.91;;;8.98;100.00
17855;BME280;9053;53.358;6.382;2023-12-20T06:26:29;100854.44;;;8.99;100.00
17855;BME280;9053;53.358;6.382;2023-12-20T06:28:59;100864.03;;;8.99;100.00
17855;BME280;9053;53.358;6.382;2023-12-20T06:31:29;100855.28;;;8.98;100.00
17855;BME280;9053;53.358;6.382;2023-12-20T06:34:00;100851.78;;;8.98;100.00
17855;BME280;9053;53.358;6.382;2023-12-20T06:36:30;100846.66;;;9.01;100.00
17855;BME280;9053;53.358;6.382;2023-12-20T06:39:02;100844.09;;;9.02;100.00
17855;BME280;9053;53.358;6.382;2023-12-20T06:41:33;100838.97;;;9.05;100.00
17855;BME280;9053;53.358;6.382;2023-12-20T06:44:03;100838.84;;;9.02;100.00
17855;BME280;9053;53.358;6.382;2023-12-20T06:46:33;100834.50;;;9.03;100.00
17855;BME280;9053;53.358;6.382;2023-12-20T06:49:03;100838.97;;;9.05;100.00
17855;BME280;9053;53.358;6.382;2023-12-20T06:51:33;100820.59;;;9.05;100.00
17855;BME280;9053;53.358;6.382;2023-12-20T06:54:05;100834.69;;;9.07;100.00
17855;BME280;9053;53.358;6.382;2023-12-20T06:56:36;100827.81;;;9.11;100.00
17855;BME280;9053;53.358;6.382;2023-12-20T06:59:06;100831.22;;;9.08;100.00
17855;BME280;9053;53.358;6.382;2023-12-20T07:01:36;100826.03;;;9.10;100.00
17855;BME280;9053;53.358;6.382;2023-12-20T07:04:08;100826.97;;;9.12;100.00
17855;BME280;9053;53.358;6.382;2023-12-20T07:06:38;100823.56;;;9.15;100.00
17855;BME280;9053;53.358;6.382;2023-12-20T07:09:11;100808.75;;;9.15;100.00
17855;BME280;9053;53.358;6.382;2023-12-20T07:11:41;100806.91;;;9.13;100.00
17855;BME280;9053;53.358;6.382;2023-12-20T07:14:11;100814.88;;;9.16;100.00
17855;BME280;9053;53.358;6.382;2023-12-20T07:16:41;100811.28;;;9.14;100.00
17855;BME280;9053;53.358;6.382;2023-12-20T07:19:10;100808.59;;;9.12;100.00
17855;BME280;9053;53.358;6.382;2023-12-20T07:21:40;100814.78;;;9.13;100.00
17855;BME280;9053;53.358;6.382;2023-12-20T07:24:13;100815.69;;;9.15;100.00
17855;BME280;9053;53.358;6.382;2023-12-20T07:26:43;100816.44;;;9.10;100.00
17855;BME280;9053;53.358;6.382;2023-12-20T07:29:13;100808.69;;;9.14;100.00
17855;BME280;9053;53.358;6.382;2023-12-20T07:31:43;100818.31;;;9.15;100.00
17855;BME280;9053;53.358;6.382;2023-12-20T07:34:13;100809.75;;;9.19;100.00
17855;BME280;9053;53.358;6.382;2023-12-20T07:36:45;100817.63;;;9.19;100.00
17855;BME280;9053;53.358;6.382;2023-12-20T07:39:18;100825.59;;;9.22;100.00
17855;BME280;9053;53.358;6.382;2023-12-20T07:41:48;100824.00;;;9.25;100.00
17855;BME280;9053;53.358;6.382;2023-12-20T07:44:18;100822.38;;;9.29;100.00
17855;BME280;9053;53.358;6.382;2023-12-20T07:46:48;100832.19;;;9.33;100.00
17855;BME280;9053;53.358;6.382;2023-12-20T07:49:19;100817.38;;;9.35;100.00
17855;BME280;9053;53.358;6.382;2023-12-20T07:51:49;100820.72;;;9.31;100.00
17855;BME280;9053;53.358;6.382;2023-12-20T07:54:21;100824.19;;;9.30;100.00
17855;BME280;9053;53.358;6.382;2023-12-20T07:56:51;100820.91;;;9.36;100.00
17855;BME280;9053;53.358;6.382;2023-12-20T07:59:24;100809.38;;;9.32;100.00
17855;BME280;9053;53.358;6.382;2023-12-20T08:01:58;100834.81;;;9.33;100.00
17855;BME280;9053;53.358;6.382;2023-12-20T08:04:29;100817.25;;;9.32;100.00
17855;BME280;9053;53.358;6.382;2023-12-20T08:06:59;100829.66;;;9.36;100.00
17855;BME280;9053;53.358;6.382;2023-12-20T08:09:32;100829.78;;;9.39;100.00
17855;BME280;9053;53.358;6.382;2023-12-20T08:12:04;100850.78;;;9.39;100.00
17855;BME280;9053;53.358;6.382;2023-12-20T08:14:34;100899.53;;;9.32;100.00
17855;BME280;9053;53.358;6.382;2023-12-20T08:17:04;100914.47;;;9.13;100.00
17855;BME280;9053;53.358;6.382;2023-12-20T08:19:34;100913.91;;;8.78;100.00
17855;BME280;9053;53.358;6.382;2023-12-20T08:22:04;100921.41;;;8.49;100.00
17855;BME280;9053;53.358;6.382;2023-12-20T08:24:36;100921.00;;;8.20;100.00
17855;BME280;9053;53.358;6.382;2023-12-20T08:27:06;100898.25;;;8.00;100.00
17855;BME280;9053;53.358;6.382;2023-12-20T08:29:36;100896.47;;;7.79;100.00
17855;BME280;9053;53.358;6.382;2023-12-20T08:32:06;100893.19;;;7.66;100.00
17855;BME280;9053;53.358;6.382;2023-12-20T08:34:36;100906.84;;;7.58;100.00
17855;BME280;9053;53.358;6.382;2023-12-20T08:37:10;100908.88;;;7.46;100.00
17855;BME280;9053;53.358;6.382;2023-12-20T08:39:42;100941.47;;;7.35;100.00
17855;BME280;9053;53.358;6.382;2023-12-20T08:42:13;100936.19;;;7.33;100.00
17855;BME280;9053;53.358;6.382;2023-12-20T08:44:43;100920.66;;;7.38;100.00
17855;BME280;9053;53.358;6.382;2023-12-20T08:47:13;100930.63;;;7.45;100.00
17855;BME280;9053;53.358;6.382;2023-12-20T08:49:44;100931.22;;;7.40;100.00
17855;BME280;9053;53.358;6.382;2023-12-20T08:52:17;100936.59;;;7.43;100.00
17855;BME280;9053;53.358;6.382;2023-12-20T08:54:50;100949.03;;;7.47;100.00
17855;BME280;9053;53.358;6.382;2023-12-20T08:57:21;100943.84;;;7.48;100.00
17855;BME280;9053;53.358;6.382;2023-12-20T08:59:52;100948.28;;;7.49;100.00
17855;BME280;9053;53.358;6.382;2023-12-20T09:02:22;100934.06;;;7.44;100.00
17855;BME280;9053;53.358;6.382;2023-12-20T09:04:52;100922.91;;;7.48;100.00
17855;BME280;9053;53.358;6.382;2023-12-20T09:07:23;100935.41;;;7.54;100.00
17855;BME280;9053;53.358;6.382;2023-12-20T09:09:56;100921.63;;;7.58;100.00
17855;BME280;9053;53.358;6.382;2023-12-20T09:12:26;100928.81;;;7.62;100.00
17855;BME280;9053;53.358;6.382;2023-12-20T09:14:56;100937.78;;;7.67;100.00
17855;BME280;9053;53.358;6.382;2023-12-20T09:17:29;100939.53;;;7.68;100.00
17855;BME280;9053;53.358;6.382;2023-12-20T09:20:02;100937.09;;;7.71;100.00
17855;BME280;9053;53.358;6.382;2023-12-20T09:22:34;100937.25;;;7.74;100.00
17855;BME280;9053;53.358;6.382;2023-12-20T09:25:08;100936.41;;;7.75;100.00
17855;BME280;9053;53.358;6.382;2023-12-20T09:27:39;100937.38;;;7.77;100.00
17855;BME280;9053;53.358;6.382;2023-12-20T09:30:10;100941.78;;;7.78;100.00
17855;BME280;9053;53.358;6.382;2023-12-20T09:32:53;100954.31;;;7.86;100.00
17855;BME280;9053;53.358;6.382;2023-12-20T09:35:23;100958.75;;;7.87;100.00
17855;BME280;9053;53.358;6.382;2023-12-20T09:37:56;100954.50;;;7.89;100.00
17855;BME280;9053;53.358;6.382;2023-12-20T09:40:32;100958.22;;;7.94;100.00
17855;BME280;9053;53.358;6.382;2023-12-20T09:43:04;100957.66;;;8.01;100.00
17855;BME280;9053;53.358;6.382;2023-12-20T09:45:34;100964.00;;;8.06;100.00
17855;BME280;9053;53.358;6.382;2023-12-20T09:48:06;100952.97;;;8.13;100.00
17855;BME280;9053;53.358;6.382;2023-12-20T09:50:37;100955.72;;;8.16;100.00
17855;BME280;9053;53.358;6.382;2023-12-20T09:53:08;100965.47;;;8.19;100.00
17855;BME280;9053;53.358;6.382;2023-12-20T09:55:45;100969.19;;;8.24;100.00
17855;BME280;9053;53.358;6.382;2023-12-20T09:58:16;100975.53;;;8.29;100.00
17855;BME280;9053;53.358;6.382;2023-12-20T10:00:46;100973.09;;;8.34;100.00
17855;BME280;9053;53.358;6.382;2023-12-20T10:03:17;100975.03;;;8.38;100.00
17855;BME280;9053;53.358;6.382;2023-12-20T10:05:52;100980.56;;;8.44;100.00
17855;BME280;9053;53.358;6.382;2023-12-20T10:08:24;100977.38;;;8.50;100.00
17855;BME280;9053;53.358;6.382;2023-12-20T10:10:57;100986.31;;;8.55;100.00
17855;BME280;9053;53.358;6.382;2023-12-20T10:13:30;100971.75;;;8.61;100.00
17855;BME280;9053;53.358;6.382;2023-12-20T10:16:00;100980.31;;;8.57;100.00
17855;BME280;9053;53.358;6.382;2023-12-20T10:18:30;100984.84;;;8.61;100.00
17855;BME280;9053;53.358;6.382;2023-12-20T10:21:05;100980.66;;;8.65;100.00
17855;BME280;9053;53.358;6.382;2023-12-20T10:23:37;100973.81;;;8.69;100.00
17855;BME280;9053;53.358;6.382;2023-12-20T10:26:19;100973.94;;;8.72;100.00
17855;BME280;9053;53.358;6.382;2023-12-20T10:28:50;100987.13;;;8.73;100.00
17855;BME280;9053;53.358;6.382;2023-12-20T10:31:30;100967.75;;;8.70;100.00
17855;BME280;9053;53.358;6.382;2023-12-20T10:34:02;100958.16;;;8.70;100.00
17855;BME280;9053;53.358;6.382;2023-12-20T10:36:33;100957.19;;;8.68;100.00
17855;BME280;9053;53.358;6.382;2023-12-20T10:39:04;100953.78;;;8.71;100.00
17855;BME280;9053;53.358;6.382;2023-12-20T10:41:38;100951.19;;;8.71;100.00
17855;BME280;9053;53.358;6.382;2023-12-20T10:44:10;100951.19;;;8.71;99.82
17855;BME280;9053;53.358;6.382;2023-12-20T10:46:41;100960.81;;;8.72;99.57
17855;BME280;9053;53.358;6.382;2023-12-20T10:49:17;100947.78;;;8.73;99.26
17855;BME280;9053;53.358;6.382;2023-12-20T10:51:48;100939.06;;;8.74;98.97
17855;BME280;9053;53.358;6.382;2023-12-20T10:54:20;100933.91;;;8.76;98.86
17855;BME280;9053;53.358;6.382;2023-12-20T10:56:53;100934.91;;;8.79;98.80
17855;BME280;9053;53.358;6.382;2023-12-20T10:59:24;100943.00;;;8.84;98.68
17855;BME280;9053;53.358;6.382;2023-12-20T11:01:56;100941.34;;;8.86;98.32
17855;BME280;9053;53.358;6.382;2023-12-20T11:04:33;100944.81;;;8.85;98.03
17855;BME280;9053;53.358;6.382;2023-12-20T11:07:15;100931.53;;;8.82;97.74
17855;BME280;9053;53.358;6.382;2023-12-20T11:09:54;100944.81;;;8.85;97.48
17855;BME280;9053;53.358;6.382;2023-12-20T11:12:37;100940.44;;;8.85;97.33
17855;BME280;9053;53.358;6.382;2023-12-20T11:15:07;100939.69;;;8.88;97.25
17855;BME280;9053;53.358;6.382;2023-12-20T11:17:39;100929.38;;;8.93;97.25
17855;BME280;9053;53.358;6.382;2023-12-20T11:20:10;100919.09;;;8.97;97.19
17855;BME280;9053;53.358;6.382;2023-12-20T11:22:52;100906.91;;;8.99;97.35
17855;BME280;9053;53.358;6.382;2023-12-20T11:25:23;100906.91;;;8.99;97.27
17855;BME280;9053;53.358;6.382;2023-12-20T11:28:12;100913.06;;;9.00;97.28
17855;BME280;9053;53.358;6.382;2023-12-20T11:30:43;100907.06;;;9.02;97.46
17855;BME280;9053;53.358;6.382;2023-12-20T11:33:16;100912.44;;;9.05;97.43
17855;BME280;9053;53.358;6.382;2023-12-20T11:35:46;100915.94;;;9.06;97.56
17855;BME280;9053;53.358;6.382;2023-12-20T11:38:16;100909.06;;;9.09;97.59
17855;BME280;9053;53.358;6.382;2023-12-20T11:40:48;100902.16;;;9.12;97.75
17855;BME280;9053;53.358;6.382;2023-12-20T11:43:35;100906.72;;;9.16;97.82
17855;BME280;9053;53.358;6.382;2023-12-20T11:46:07;100904.22;;;9.19;97.87
17855;BME280;9053;53.358;6.382;2023-12-20T11:48:38;100901.69;;;9.22;97.91
17855;BME280;9053;53.358;6.382;2023-12-20T11:51:12;100900.81;;;9.21;98.00
17855;BME280;9053;53.358;6.382;2023-12-20T11:53:42;100896.44;;;9.22;97.98
17855;BME280;9053;53.358;6.382;2023-12-20T11:56:12;100888.66;;;9.23;98.02
17855;BME280;9053;53.358;6.382;2023-12-20T11:58:44;100888.72;;;9.25;97.99
17855;BME280;9053;53.358;6.382;2023-12-20T12:01:17;100871.25;;;9.25;97.79
17855;BME280;9053;53.358;6.382;2023-12-20T12:04:02;100887.81;;;9.24;97.56
17855;BME280;9053;53.358;6.382;2023-12-20T12:06:32;100873.88;;;9.25;97.47
17855;BME280;9053;53.358;6.382;2023-12-20T12:09:04;100869.59;;;9.27;97.19
17855;BME280;9053;53.358;6.382;2023-12-20T12:11:36;100871.25;;;9.25;96.97
17855;BME280;9053;53.358;6.382;2023-12-20T12:14:10;100858.13;;;9.25;96.68
17855;BME280;9053;53.358;6.382;2023-12-20T12:16:41;100875.66;;;9.26;96.47
17855;BME280;9053;53.358;6.382;2023-12-20T12:19:20;100872.22;;;9.27;96.18
17855;BME280;9053;53.358;6.382;2023-12-20T12:21:52;100867.00;;;9.29;96.10
17855;BME280;9053;53.358;6.382;2023-12-20T12:24:34;100876.69;;;9.30;95.98
17855;BME280;9053;53.358;6.382;2023-12-20T12:27:06;100859.25;;;9.32;95.98
17855;BME280;9053;53.358;6.382;2023-12-20T12:29:39;100859.13;;;9.29;95.74
17855;BME280;9053;53.358;6.382;2023-12-20T12:32:09;100866.97;;;9.27;95.69
17855;BME280;9053;53.358;6.382;2023-12-20T12:34:40;100875.72;;;9.28;95.52
17855;BME280;9053;53.358;6.382;2023-12-20T12:37:10;100866.97;;;9.27;95.36
17855;BME280;9053;53.358;6.382;2023-12-20T12:39:40;100864.50;;;9.32;95.20
17855;BME280;9053;53.358;6.382;2023-12-20T12:42:10;100861.09;;;9.35;95.12
17855;BME280;9053;53.358;6.382;2023-12-20T12:44:43;100852.44;;;9.37;94.83
17855;BME280;9053;53.358;6.382;2023-12-20T12:47:13;100854.25;;;9.38;94.82
17855;BME280;9053;53.358;6.382;2023-12-20T12:49:43;100856.03;;;9.39;94.71
17855;BME280;9053;53.358;6.382;2023-12-20T12:52:13;100865.75;;;9.42;94.60
17855;BME280;9053;53.358;6.382;2023-12-20T12:54:44;100849.19;;;9.43;94.40
17855;BME280;9053;53.358;6.382;2023-12-20T12:57:15;100851.72;;;9.41;94.20
17855;BME280;9053;53.358;6.382;2023-12-20T12:59:48;100857.94;;;9.43;94.24
17855;BME280;9053;53.358;6.382;2023-12-20T13:02:18;100852.69;;;9.43;94.27
17855;BME280;9053;53.358;6.382;2023-12-20T13:04:49;100850.00;;;9.42;94.43
17855;BME280;9053;53.358;6.382;2023-12-20T13:07:19;100844.81;;;9.43;94.58
17855;BME280;9053;53.358;6.382;2023-12-20T13:09:49;100835.03;;;9.39;94.93
17855;BME280;9053;53.358;6.382;2023-12-20T13:12:19;100844.56;;;9.37;95.11
17855;BME280;9053;53.358;6.382;2023-12-20T13:14:52;100835.63;;;9.32;95.27
17855;BME280;9053;53.358;6.382;2023-12-20T13:17:22;100832.06;;;9.30;95.50
17855;BME280;9053;53.358;6.382;2023-12-20T13:19:56;100829.28;;;9.27;95.93
17855;BME280;9053;53.358;6.382;2023-12-20T13:22:26;100825.84;;;9.28;96.13
17855;BME280;9053;53.358;6.382;2023-12-20T13:24:56;100829.16;;;9.22;96.21